Time;durP1;ratioP1;P1;durP2;ratioP2;P2;SDS_P1;SDS_P2;PMS_P1;PMS_P2;Temp;Humidity;BMP_temperature;BMP_pressure;BME280_temperature;BME280_humidity;BME280_pressure;Samples;Min_cycle;Max_cycle;Signal;HPM_P1;HPM_P2
2023/01/07 13:10:34;;;;;;;1.70;1.60;;;;;;;12.52;65.72;98788.75;6258839;22;2264626;-87
2023/01/07 13:13:06;;;;;;;2.37;1.73;;;;;;;12.26;65.38;98752.56;6204623;22;39583;-87
2023/01/07 13:15:38;;;;;;;1.73;1.20;;;;;;;12.24;64.60;98747.38;6204952;22;41388;-89
2023/01/07 13:18:14;;;;;;;1.70;1.60;;;;;;;12.46;64.17;98799.81;6205076;22;42165;-88
2023/01/07 13:20:55;;;;;;;1.60;1.50;;;;;;;12.32;62.94;98802.59;6205134;22;42477;-85
2023/01/07 13:23:33;;;;;;;2.33;1.90;;;;;;;12.09;62.54;98769.72;6205651;22;40388;-87
2023/01/07 13:26:13;;;;;;;1.80;1.70;;;;;;;12.26;63.31;98785.28;6204946;22;41913;-87
2023/01/07 13:29:11;;;;;;;1.73;1.63;;;;;;;12.02;63.31;98744.53;6205681;22;42019;-87
2023/01/07 13:31:53;;;;;;;2.10;1.90;;;;;;;11.85;63.69;98712.09;6205412;22;42405;-87
2023/01/07 13:34:28;;;;;;;1.77;1.67;;;;;;;12.24;63.94;98771.25;6205078;22;38962;-87
2023/01/07 13:37:15;;;;;;;1.70;1.60;;;;;;;12.27;63.86;98771.06;6205200;22;42061;-89
2023/01/07 13:40:09;;;;;;;2.03;1.90;;;;;;;12.07;63.02;98727.34;6199451;22;41771;-86
2023/01/07 13:42:47;;;;;;;1.93;1.83;;;;;;;12.33;62.67;98769.78;6198858;22;41378;-89
2023/01/07 13:45:26;;;;;;;1.80;1.70;;;;;;;12.33;62.95;98760.00;6198640;22;41100;-89
2023/01/07 13:47:58;;;;;;;1.60;1.50;;;;;;;12.37;62.50;98765.94;6198152;22;42032;-86
2023/01/07 13:50:52;;;;;;;1.80;1.70;;;;;;;12.28;62.16;98746.19;6198789;22;42896;-86
2023/01/07 13:53:38;;;;;;;1.60;1.50;;;;;;;12.27;62.25;98749.81;6197507;22;43694;-87
2023/01/07 13:56:32;;;;;;;1.53;1.43;;;;;;;12.35;63.24;98752.78;6198786;22;39175;-88
2023/01/07 13:59:02;;;;;;;2.20;2.00;;;;;;;12.26;63.56;98726.03;6198141;22;41899;-88
2023/01/07 14:01:31;;;;;;;2.00;1.83;;;;;;;12.42;63.56;98746.06;6198464;22;42979;-87
2023/01/07 14:04:19;;;;;;;1.70;1.60;;;;;;;12.50;63.33;98750.81;6198930;22;40944;-87
2023/01/07 14:06:50;;;;;;;2.07;1.97;;;;;;;12.45;63.06;98743.19;6198690;22;39758;-88
2023/01/07 14:09:37;;;;;;;2.30;1.93;;;;;;;12.21;63.29;98694.50;6199302;22;40807;-88
2023/01/07 14:12:38;;;;;;;1.77;1.60;;;;;;;12.37;63.56;98708.34;6193529;23;42886;-87
2023/01/07 14:15:37;;;;;;;2.10;1.90;;;;;;;12.45;63.87;98718.44;6193271;23;42617;-86
2023/01/07 14:18:28;;;;;;;2.63;1.90;;;;;;;12.56;63.61;98745.94;6195160;23;39947;-86
2023/01/07 14:21:08;;;;;;;2.10;1.83;;;;;;;12.50;63.70;98735.72;6211786;23;40751;-85
2023/01/07 14:23:53;;;;;;;1.97;1.73;;;;;;;12.62;64.26;98741.13;6213422;23;43537;-85
2023/01/07 14:26:30;;;;;;;2.13;1.93;;;;;;;12.69;64.22;98743.22;6213743;23;41423;-85
2023/01/07 14:29:26;;;;;;;1.60;1.50;;;;;;;12.78;64.14;98739.03;6213729;23;40043;-86
2023/01/07 14:32:13;;;;;;;2.10;1.70;;;;;;;12.84;63.94;98734.16;6203713;23;41000;-87
2023/01/07 14:34:41;;;;;;;1.80;1.70;;;;;;;12.73;63.49;98722.59;6198500;23;41871;-87
2023/01/07 14:37:16;;;;;;;1.67;1.40;;;;;;;12.35;64.01;98689.06;6197337;23;40706;-87
2023/01/07 14:39:45;;;;;;;2.00;1.80;;;;;;;12.19;64.54;98688.47;6196579;23;38938;-87
2023/01/07 14:42:43;;;;;;;1.93;1.50;;;;;;;12.39;64.44;98733.00;6194125;23;40881;-87
2023/01/07 14:45:50;;;;;;;2.30;1.70;;;;;;;12.35;64.81;98736.84;6193249;23;41822;-86
2023/01/07 14:48:35;;;;;;;1.83;1.73;;;;;;;11.91;65.13;98667.47;6193021;23;42379;-87
2023/01/07 14:51:36;;;;;;;1.93;1.73;;;;;;;12.24;65.24;98723.47;6192204;23;39795;-87
2023/01/07 14:55:01;;;;;;;2.97;1.83;;;;;;;11.99;65.41;98675.78;6184997;23;41029;-87
2023/01/07 14:57:40;;;;;;;1.23;1.13;;;;;;;11.98;65.03;98698.81;6193123;23;41815;-87
2023/01/07 15:00:54;;;;;;;1.07;1.07;;;;;;;11.94;64.80;98705.28;6193213;23;42323;-89
2023/01/07 15:03:46;;;;;;;1.93;1.50;;;;;;;11.81;65.24;98705.28;6079357;23;39180;-88
2023/01/07 15:06:31;;;;;;;1.20;1.10;;;;;;;11.78;65.51;98716.09;6183122;23;40717;-85
2023/01/07 15:17:27;;;;;;;1.60;1.50;;;;;;;11.07;66.99;98676.78;6197774;23;40727;-83
2023/01/07 15:19:56;;;;;;;1.40;1.30;;;;;;;10.96;67.50;98674.00;6196823;23;43043;-83
2023/01/07 15:22:42;;;;;;;1.90;1.63;;;;;;;10.97;67.85;98690.75;6225044;23;41245;-82
2023/01/07 15:25:20;;;;;;;1.70;1.60;;;;;;;10.98;68.04;98709.22;6201981;23;40286;-84
